Relevés horaires Koksijde (Belgique)


Relevés horaires à Koksijde - Mardi 04 Févr. 2014
Heure UTC1 Température [°C] Vent [km/h] Hum. [%] Pres.4 [hPa] Visi. [Km] Nébu. [octa] Préc.5 [mm] Cond.
2m. Res. Ros. Dir.2 Vit. Moy. Raf.3
23:00 5.9 2.9 1.4 SSE 14.8 16.7 22.2 73 996.3(-3.8/3h) 30 6/8 -- --
22:00 6.1 2.9 1.4 SSE 16.7 16.7 22.2 72 997.2(-3.7/3h) 30 5/8 -- --
21:00 5.8 2.5 1.9 SSE 16.7 16.7 24.1 76 998.8(-3.2/3h) 30 4/8 -- --
20:00 5.9 2.9 1.9 SSE 14.8 14.8 20.4 75 1000.2(-2.4/3h) 30 2/8 -- --
19:00 5.8 3.1 2.4 SSE 13.0 13.0 20.4 79 1001.2(-2.2/3h) 30 2/8 -- --
18:00 5.3 3.2 2.5 SSE 9.3 16.7 24.1 82 1002.2(-1.7/3h) 30 2/8 0/0h
--
17:00 6.0 3.3 2.3 SSE 13.0 14.8 22.2 77 1002.7(-1.7/3h) 30 2/8 -- --
16:00 7.1 4.4 3.2 S 14.8 14.8 20.4 76 1003.5(-1.8/3h) 30 5/8 -- --
15:00 7.5 5.4 3.4 S 11.1 16.7 24.1 75 1004(-1.5/3h) 30 4/8 -- --
14:00 7.9 5.4 3.1 S 14.8 16.7 22.2 72 1004.7(-1.2/3h) 30 4/8 -- --
13:00 7.9 5.1 2.6 S 16.7 16.7 24.1 69 1005.4(-0.3/3h) 30 3/8 -- --
12:00 7.6 5 3.2 S 14.8 14.8 20.4 74 1005.5(0.1/3h) 30 2/8 0/0h
--
11:00 6.9 4.4 3.1 S 13.0 14.8 20.4 77 1006(1.2/3h) 30 2/8 -- --
10:00 5.9 3.2 3.0 S 13.0 14.8 18.5 82 1005.9(2.4/3h) 25 2/8 -- --
09:00 5.0 2.8 2.9 S 9.3 11.1 16.7 86 1005.5(3.0/3h) 25 2/8 -- --
08:00 4.8 2.2 2.9 SSO 11.1 11.1 16.7 87 1004.5(3.0/3h) 25 3/8 -- --
07:00 4.5 2.2 3.0 SSO 9.3 9.3 13.0 90 1003.5(2.7/3h) 25 4/8 -- --
06:00 5.5 3.4 4.1 SSO 9.3 14.8 20.4 91 1002.4(1.7/3h) 20 7/8 trace/12h
Il est tombé de la pluie (non sous forme d'averses) à la station au cours de l'heure précédente, mais il n'y en a pas au moment de l'observation
05:00 5.8 3.4 3.8 S 11.1 14.8 18.5 87 1001.2(0.6/3h) 25 7/8 -- --
04:00 5.0 1.8 3.0 S 14.8 14.8 20.4 87 1000.7(-0.1/3h) 25 7/8 -- --
03:00 4.5 1.8 1.8 S 11.1 11.1 16.7 83 1000.5(-0.6/3h) 25 7/8 -- --
02:00 4.5 1.8 1.5 SSE 11.1 11.1 16.7 81 1000.7(-1.0/3h) 25 7/8 -- --
01:00 3.9 1.5 1.5 SSE 9.3 11.1 14.8 84 1000.9(-1.0/3h) 25 7/8 -- --
00:00 3.0 0 1.3 SSE 11.1 11.1 14.8 89 1001.2(-1.3/3h) 25 3/8 0/0h
--

1 Coordinated Universal Time. Actuellement il est 05:00 locale et 03:00 UTC.

2 Le vent souffle depuis la direction indiquée vers la direction oposée.

3 Les rafales max. sont disponible 40 min après l'heure du relevé.

4 Pour les stations d'altitude (plus de 600m) le géopotentiel du niveau le plus proche de la pression obligatoire est indiqué.

5 Les stations disposant d'un diffuseur peuvent indiquer "trace". Cela signifie que des précipitations ont touchés le sol mais que la quantité est inférieure à 0.1 mm.

Récapitulatif de la journée
Température [°C] Vent [km/h] Ensoleillement4 [h] Precipitations totale5 [mm] Pression [Hpa]
Min1 Max.2 Moy.3 Max. Min Max.
2.7 8.3 14.1 24.1 0 h 0 min 0 996.3 1006.0

1 Température minimale relevée entre 18:00 UTC la veille et 18:00 UTC le jour donné.

2 Température maximale relevée entre 06:00 UTC le jour donné et 06:00 UTC le lendemain.

3 Vent moyen de la journée basé sur les relevés horaires.

4 Ensoleillement en heures relevé entre 06:00 UTC la veille et 06:00 UTC le jour donné.

5 Précipitations totales tombées entre 06:00 UTC la jour donné et 06:00 UTC le lendemain.

Graphiques horaires